Time;durP1;ratioP1;P1;durP2;ratioP2;P2;SDS_P1;SDS_P2;PMS_P1;PMS_P2;Temp;Humidity;BMP_temperature;BMP_pressure;BME280_temperature;BME280_humidity;BME280_pressure;Samples;Min_cycle;Max_cycle;Signal;HPM_P1;HPM_P2
2023/04/19 04:21:20;;;;;;;0.38;0.30;;;12.50;45.50;;;;;;6103771;23;20838;-78
2023/04/19 04:23:48;;;;;;;0.40;0.30;;;12.60;45.40;;;;;;6152964;23;20820;-78
2023/04/19 04:26:16;;;;;;;2.10;0.30;;;12.60;45.30;;;;;;6151513;23;20460;-77
2023/04/19 04:28:50;;;;;;;1.52;0.30;;;12.60;45.30;;;;;;6151933;23;20396;-77
2023/04/19 04:31:17;;;;;;;0.60;0.40;;;12.70;45.30;;;;;;6151126;23;20449;-81
2023/04/19 04:33:44;;;;;;;1.20;0.30;;;12.70;45.10;;;;;;6150365;23;20378;-78
2023/04/19 04:36:11;;;;;;;0.40;0.30;;;12.60;45.00;;;;;;6151622;23;20839;-78
2023/04/19 04:38:41;;;;;;;2.03;0.50;;;12.70;45.30;;;;;;6150881;23;20381;-77
2023/04/19 04:41:10;;;;;;;1.10;0.40;;;12.70;45.20;;;;;;6153331;23;20366;-77
2023/04/19 04:43:38;;;;;;;0.63;0.30;;;12.70;45.00;;;;;;6152489;23;20459;-78
2023/04/19 04:46:05;;;;;;;1.50;0.40;;;12.60;45.00;;;;;;6153037;23;20366;-77
2023/04/19 04:48:34;;;;;;;1.20;0.40;;;12.70;45.10;;;;;;6150195;23;20378;-78
2023/04/19 04:51:01;;;;;;;0.47;0.30;;;12.70;45.00;;;;;;6151739;23;20466;-79
2023/04/19 04:53:28;;;;;;;0.50;0.30;;;12.70;45.10;;;;;;6151699;23;20704;-79
2023/04/19 04:55:55;;;;;;;0.75;0.30;;;12.60;45.20;;;;;;6150341;23;20393;-78
2023/04/19 04:58:21;;;;;;;0.47;0.30;;;12.60;45.50;;;;;;6151718;23;20854;-79
2023/04/19 05:00:50;;;;;;;0.47;0.20;;;12.60;45.40;;;;;;6149941;23;20381;-79
2023/04/19 05:03:17;;;;;;;0.43;0.40;;;12.60;45.50;;;;;;6148379;23;20375;-79
2023/04/19 05:05:43;;;;;;;0.30;0.30;;;12.60;45.80;;;;;;6145720;23;20380;-78
2023/04/19 05:08:14;;;;;;;0.38;0.30;;;12.60;45.90;;;;;;6147004;23;20380;-78
2023/04/19 05:10:40;;;;;;;0.70;0.40;;;12.50;46.30;;;;;;6146659;23;20833;-78
2023/04/19 05:13:07;;;;;;;0.47;0.30;;;12.50;46.30;;;;;;6146487;23;20423;-79
2023/04/19 05:15:36;;;;;;;0.70;0.40;;;12.40;46.40;;;;;;6121676;23;20376;-79
2023/04/19 05:18:04;;;;;;;0.90;0.40;;;12.40;46.40;;;;;;6121249;23;20837;-78
2023/04/19 05:20:32;;;;;;;0.60;0.30;;;12.30;46.70;;;;;;6146634;23;20407;-79
2023/04/19 05:23:02;;;;;;;0.80;0.47;;;12.30;46.70;;;;;;6145275;23;20499;-80
2023/04/19 05:25:30;;;;;;;0.93;0.50;;;12.30;47.00;;;;;;6121369;23;20443;-78
2023/04/19 05:27:57;;;;;;;1.30;0.40;;;12.30;46.90;;;;;;6145511;23;20407;-79
2023/04/19 05:30:24;;;;;;;1.05;0.40;;;12.20;47.10;;;;;;6121653;23;20392;-78
2023/04/19 05:32:51;;;;;;;0.50;0.40;;;12.30;47.20;;;;;;6122394;23;20408;-78
2023/04/19 05:35:19;;;;;;;0.90;0.45;;;12.20;47.20;;;;;;6145452;23;20391;-78
2023/04/19 05:37:46;;;;;;;0.60;0.30;;;12.20;47.30;;;;;;6145084;23;20375;-79
2023/04/19 05:40:13;;;;;;;0.88;0.40;;;12.20;47.50;;;;;;6146891;23;20706;-78
2023/04/19 05:42:42;;;;;;;1.38;0.50;;;12.20;47.70;;;;;;6122901;23;21825;-78
2023/04/19 05:45:10;;;;;;;0.90;0.50;;;12.20;47.60;;;;;;6147519;23;20698;-77
2023/04/19 05:47:37;;;;;;;1.00;0.40;;;12.20;47.00;;;;;;6121604;23;20849;-79
2023/04/19 05:50:04;;;;;;;0.75;0.40;;;12.30;47.20;;;;;;6147160;23;20391;-77
2023/04/19 05:52:31;;;;;;;0.88;0.38;;;12.30;47.20;;;;;;6148368;23;20446;-78
2023/04/19 05:54:58;;;;;;;0.80;0.40;;;12.30;47.20;;;;;;6146893;23;20879;-78
2023/04/19 05:57:25;;;;;;;0.98;0.40;;;12.30;47.20;;;;;;6125133;23;20368;-78
2023/04/19 05:59:53;;;;;;;0.60;0.40;;;12.40;47.00;;;;;;6147174;23;20375;-78
2023/04/19 06:02:20;;;;;;;1.90;0.40;;;12.40;46.70;;;;;;6147555;23;20846;-78
2023/04/19 06:04:48;;;;;;;1.08;0.47;;;12.40;46.70;;;;;;6124273;23;20382;-79
2023/04/19 06:07:16;;;;;;;0.90;0.40;;;12.40;46.70;;;;;;6123504;23;20380;-78
2023/04/19 06:09:57;;;;;;;0.40;0.20;;;12.50;46.40;;;;;;6124360;23;20392;-78
2023/04/19 06:12:24;;;;;;;0.80;0.40;;;12.60;46.40;;;;;;6147843;23;20857;-78
2023/04/19 06:14:51;;;;;;;1.67;0.40;;;12.60;46.00;;;;;;6146803;23;20380;-80
2023/04/19 06:17:23;;;;;;;1.30;0.40;;;12.60;46.10;;;;;;6123177;23;20748;-79
2023/04/19 06:19:52;;;;;;;0.90;0.40;;;12.70;45.70;;;;;;6146510;23;20380;-78
2023/04/19 06:22:19;;;;;;;0.68;0.30;;;12.80;45.80;;;;;;6147258;23;20387;-79
2023/04/19 06:24:49;;;;;;;0.82;0.38;;;12.80;45.80;;;;;;6124934;23;20390;-78
2023/04/19 06:27:17;;;;;;;1.73;0.40;;;12.90;45.60;;;;;;6144457;23;20438;-77
2023/04/19 06:29:44;;;;;;;1.40;0.40;;;13.00;45.00;;;;;;6147639;23;20449;-79
2023/04/19 06:32:10;;;;;;;1.93;0.47;;;13.10;45.00;;;;;;6145658;23;20757;-78
2023/04/19 06:34:37;;;;;;;0.90;0.40;;;13.20;44.80;;;;;;6124335;23;20786;-78
2023/04/19 06:37:07;;;;;;;2.30;0.50;;;13.20;44.60;;;;;;6146547;23;20437;-78
2023/04/19 06:39:34;;;;;;;0.60;0.50;;;13.30;44.50;;;;;;6123729;23;20468;-79
2023/04/19 06:42:02;;;;;;;1.10;0.50;;;13.40;44.30;;;;;;6146175;23;20431;-78
2023/04/19 06:44:29;;;;;;;1.60;0.35;;;13.40;44.40;;;;;;6146870;23;20431;-79
2023/04/19 06:46:57;;;;;;;0.70;0.30;;;13.50;44.20;;;;;;6121820;23;20439;-78
2023/04/19 06:49:24;;;;;;;1.02;0.30;;;13.60;43.80;;;;;;6122591;23;20395;-78
2023/04/19 06:51:52;;;;;;;0.90;0.30;;;13.70;43.60;;;;;;6146676;23;20376;-76
2023/04/19 06:54:19;;;;;;;0.60;0.40;;;13.80;43.40;;;;;;6146260;23;20438;-79
2023/04/19 06:56:47;;;;;;;1.52;0.40;;;13.90;43.30;;;;;;6147161;23;20368;-78
2023/04/19 06:59:18;;;;;;;1.30;0.30;;;13.90;43.10;;;;;;6136787;23;20386;-80
2023/04/19 07:01:45;;;;;;;0.90;0.40;;;14.00;43.20;;;;;;6123113;23;20672;-80
2023/04/19 07:04:13;;;;;;;0.88;0.30;;;14.10;43.10;;;;;;6146573;23;20455;-79
2023/04/19 07:06:41;;;;;;;0.75;0.40;;;14.20;42.60;;;;;;6147102;23;20443;-80
2023/04/19 07:09:11;;;;;;;1.45;0.40;;;14.30;43.10;;;;;;6145501;23;20379;-80
2023/04/19 07:11:38;;;;;;;0.50;0.30;;;14.40;41.90;;;;;;6147051;23;20368;-80
2023/04/19 07:14:05;;;;;;;0.60;0.30;;;14.50;42.00;;;;;;6147019;23;20383;-78
2023/04/19 07:16:32;;;;;;;0.80;0.50;;;14.60;42.20;;;;;;6123297;23;20380;-78
2023/04/19 07:18:59;;;;;;;1.08;0.40;;;14.80;41.20;;;;;;6147282;23;20379;-78
2023/04/19 07:21:31;;;;;;;0.98;0.30;;;14.80;41.20;;;;;;6146203;23;20375;-79
2023/04/19 07:23:58;;;;;;;0.40;0.30;;;15.00;40.70;;;;;;6146308;23;20376;-79
2023/04/19 07:26:26;;;;;;;0.77;0.30;;;15.10;40.60;;;;;;6144664;23;20439;-79
2023/04/19 07:28:52;;;;;;;0.70;0.30;;;15.30;40.10;;;;;;6122880;23;20372;-77
2023/04/19 07:31:23;;;;;;;1.15;0.35;;;15.40;39.80;;;;;;6146006;23;20463;-78
2023/04/19 07:33:51;;;;;;;0.50;0.32;;;15.60;38.50;;;;;;6147443;23;20372;-77
2023/04/19 07:36:18;;;;;;;2.17;0.38;;;15.70;38.50;;;;;;6146287;23;20434;-78
2023/04/19 07:38:45;;;;;;;1.40;0.40;;;15.90;37.50;;;;;;6098136;23;20451;-78
2023/04/19 07:41:12;;;;;;;0.95;0.40;;;16.00;37.60;;;;;;6145708;23;20449;-80
2023/04/19 07:43:40;;;;;;;1.83;1.00;;;16.20;38.20;;;;;;6124045;23;20430;-79
2023/04/19 07:46:12;;;;;;;1.38;0.90;;;16.40;39.00;;;;;;6123804;23;20435;-80
2023/04/19 07:48:39;;;;;;;1.67;1.00;;;16.50;39.20;;;;;;6122235;23;20817;-79
2023/04/19 07:51:10;;;;;;;1.15;0.80;;;16.70;39.60;;;;;;6146403;23;20380;-80
2023/04/19 07:53:38;;;;;;;1.13;0.73;;;17.00;39.40;;;;;;6145722;23;20380;-77
2023/04/19 07:56:06;;;;;;;1.20;0.77;;;17.30;39.60;;;;;;6146681;23;20440;-78
2023/04/19 07:58:34;;;;;;;1.77;1.35;;;17.60;40.00;;;;;;6145369;23;20407;-78
2023/04/19 08:01:02;;;;;;;1.30;1.03;;;17.90;39.90;;;;;;6146856;23;20399;-77
2023/04/19 08:03:30;;;;;;;2.05;1.67;;;18.10;39.40;;;;;;6145213;23;20482;-78
2023/04/19 08:06:02;;;;;;;2.97;1.92;;;18.30;40.10;;;;;;6123841;23;20382;-78
2023/04/19 08:08:29;;;;;;;2.23;1.10;;;18.50;38.70;;;;;;6122401;23;20462;-78
2023/04/19 08:10:56;;;;;;;3.60;2.63;;;18.70;38.00;;;;;;6146699;23;20411;-79
2023/04/19 08:13:25;;;;;;;5.18;3.80;;;18.90;39.30;;;;;;6122322;23;20399;-78
2023/04/19 08:15:52;;;;;;;4.50;3.33;;;19.10;39.10;;;;;;6146818;23;20399;-77
2023/04/19 08:18:41;;;;;;;5.85;4.47;;;19.10;37.90;;;;;;6141668;23;20372;-78
2023/04/19 08:21:08;;;;;;;7.22;5.13;;;19.10;39.10;;;;;;6145936;23;20403;-77
2023/04/19 08:23:35;;;;;;;7.57;4.78;;;19.00;39.70;;;;;;6122125;23;20448;-78
2023/04/19 08:26:15;;;;;;;4.85;4.03;;;19.10;40.30;;;;;;6144301;23;20383;-78
2023/04/19 08:28:42;;;;;;;7.95;4.95;;;19.10;40.20;;;;;;6145609;23;20443;-79
2023/04/19 08:31:10;;;;;;;7.57;4.80;;;19.20;40.20;;;;;;6146138;23;20380;-78
2023/04/19 08:33:36;;;;;;;5.53;4.32;;;19.30;39.70;;;;;;6145860;23;20398;-79
2023/04/19 08:36:06;;;;;;;5.68;4.20;;;19.30;40.10;;;;;;6146067;23;20379;-79
2023/04/19 08:38:33;;;;;;;5.15;4.20;;;19.40;40.00;;;;;;6145342;23;20441;-78
2023/04/19 08:41:00;;;;;;;6.63;3.90;;;19.40;39.70;;;;;;6146408;23;20980;-79
2023/04/19 08:43:32;;;;;;;5.37;3.70;;;19.50;39.80;;;;;;6146027;23;20834;-79
2023/04/19 08:45:59;;;;;;;6.05;3.83;;;19.60;39.80;;;;;;6122125;23;20872;-78
2023/04/19 08:48:28;;;;;;;6.30;4.22;;;19.70;39.00;;;;;;6145154;23;20387;-78
2023/04/19 08:50:58;;;;;;;7.53;3.53;;;19.80;38.90;;;;;;6146033;23;20408;-79
2023/04/19 08:53:34;;;;;;;5.10;3.75;;;19.80;39.10;;;;;;6122055;23;20717;-79
2023/04/19 08:56:02;;;;;;;5.53;3.17;;;19.90;39.00;;;;;;6146155;23;20753;-78
2023/04/19 08:58:32;;;;;;;3.33;2.90;;;20.00;39.00;;;;;;6144090;23;20459;-78
2023/04/19 09:01:04;;;;;;;2.78;2.47;;;20.00;38.60;;;;;;6145081;23;20372;-79
2023/04/19 09:03:31;;;;;;;3.67;2.63;;;20.20;38.00;;;;;;6145073;23;20384;-78
2023/04/19 09:06:13;;;;;;;3.90;2.83;;;20.30;37.20;;;;;;6143505;23;20884;-77
2023/04/19 09:08:44;;;;;;;2.40;1.90;;;20.40;36.30;;;;;;6144993;23;20403;-76
2023/04/19 09:11:12;;;;;;;2.90;2.33;;;20.60;35.70;;;;;;6145536;23;20391;-77
2023/04/19 09:13:43;;;;;;;3.92;2.80;;;20.60;34.20;;;;;;6098051;23;20384;-78
2023/04/19 09:16:23;;;;;;;4.43;3.08;;;20.80;36.10;;;;;;6148577;23;20430;-77
2023/04/19 09:18:57;;;;;;;3.60;2.92;;;20.90;36.40;;;;;;6145649;23;20694;-78
2023/04/19 09:21:43;;;;;;;5.30;3.05;;;21.10;36.20;;;;;;6142306;23;20375;-78
2023/04/19 09:24:10;;;;;;;4.15;3.65;;;21.30;36.50;;;;;;6147397;23;20451;-78
2023/04/19 09:26:37;;;;;;;4.47;3.35;;;21.50;36.50;;;;;;6146637;23;20454;-78
2023/04/19 09:29:05;;;;;;;4.70;3.40;;;21.60;36.50;;;;;;6145970;23;20479;-78
2023/04/19 09:31:34;;;;;;;5.55;4.15;;;21.60;36.30;;;;;;6146645;23;20399;-78
2023/04/19 09:34:18;;;;;;;4.45;3.72;;;21.60;36.30;;;;;;6143451;23;20432;-79
2023/04/19 09:36:45;;;;;;;5.40;4.15;;;21.70;36.30;;;;;;6145862;23;20429;-80
2023/04/19 09:39:13;;;;;;;6.63;4.32;;;21.80;36.30;;;;;;6147207;23;20765;-79
2023/04/19 09:41:53;;;;;;;4.88;3.67;;;21.90;35.70;;;;;;6145001;23;20691;-80
2023/04/19 09:44:20;;;;;;;4.90;4.03;;;22.00;35.90;;;;;;6123433;23;20388;-79
2023/04/19 09:47:28;;;;;;;5.10;3.97;;;22.10;35.70;;;;;;6094199;23;20385;-77
2023/04/19 09:50:06;;;;;;;5.53;3.95;;;22.30;35.00;;;;;;6092745;23;20401;-76
2023/04/19 09:52:49;;;;;;;5.47;3.80;;;22.40;35.50;;;;;;6093002;23;20681;-78
2023/04/19 09:55:17;;;;;;;5.78;4.65;;;22.50;35.80;;;;;;6093551;23;20412;-78
2023/04/19 09:57:47;;;;;;;5.50;4.35;;;22.60;34.50;;;;;;6094302;23;20399;-77
2023/04/19 10:00:14;;;;;;;5.78;4.60;;;22.70;35.10;;;;;;6094191;23;20697;-78
2023/04/19 10:02:43;;;;;;;6.10;4.72;;;22.60;34.50;;;;;;6093051;23;20413;-78
2023/04/19 10:05:11;;;;;;;4.85;4.05;;;22.60;34.10;;;;;;6117003;23;20704;-78
2023/04/19 10:07:48;;;;;;;4.25;3.40;;;22.60;34.40;;;;;;6092621;23;20436;-79
2023/04/19 10:10:19;;;;;;;4.60;3.05;;;22.80;34.50;;;;;;6093607;23;20456;-78
2023/04/19 10:12:55;;;;;;;4.63;3.60;;;23.00;34.50;;;;;;6091659;23;20705;-78
2023/04/19 10:15:35;;;;;;;4.18;3.78;;;23.20;34.30;;;;;;6092715;23;20858;-77
2023/04/19 10:18:18;;;;;;;4.25;3.55;;;23.30;34.00;;;;;;6121672;23;20358;-78
2023/04/19 10:21:00;;;;;;;4.40;3.37;;;23.40;34.00;;;;;;6146740;23;20713;-78
2023/04/19 10:23:28;;;;;;;4.55;3.40;;;23.50;33.70;;;;;;6121954;23;20379;-78
2023/04/19 10:25:58;;;;;;;4.35;3.38;;;23.50;33.20;;;;;;6146630;23;20402;-77
2023/04/19 10:28:29;;;;;;;5.10;3.78;;;23.60;32.70;;;;;;6146307;23;20452;-79
2023/04/19 10:31:02;;;;;;;4.35;3.50;;;23.70;33.10;;;;;;6147027;23;20689;-78
2023/04/19 10:33:34;;;;;;;7.13;4.00;;;23.70;33.30;;;;;;6145890;23;20853;-78
2023/04/19 10:36:01;;;;;;;5.38;4.10;;;23.80;32.20;;;;;;6146522;23;20845;-77
2023/04/19 10:38:40;;;;;;;4.22;3.58;;;23.80;32.00;;;;;;6145314;23;20391;-78
2023/04/19 10:41:10;;;;;;;4.43;3.07;;;23.80;32.00;;;;;;6144513;23;20435;-78
2023/04/19 10:43:47;;;;;;;4.63;3.50;;;23.90;32.00;;;;;;6146112;23;20470;-78
2023/04/19 10:46:21;;;;;;;3.72;3.00;;;24.00;31.30;;;;;;6122384;23;20461;-77
2023/04/19 10:48:57;;;;;;;4.05;3.35;;;24.00;31.50;;;;;;6145363;23;20387;-77
2023/04/19 10:51:31;;;;;;;4.55;3.55;;;24.00;31.80;;;;;;6145906;23;20408;-79
2023/04/19 10:54:00;;;;;;;7.32;3.42;;;24.10;32.20;;;;;;6145837;23;20380;-79
2023/04/19 10:56:33;;;;;;;4.45;2.75;;;24.00;31.50;;;;;;6145362;23;20422;-78
2023/04/19 10:59:21;;;;;;;3.65;2.60;;;24.10;31.30;;;;;;6146297;23;20376;-78
2023/04/19 11:01:50;;;;;;;5.18;2.75;;;24.30;31.50;;;;;;6093316;23;20370;-78
2023/04/19 11:04:29;;;;;;;3.63;2.67;;;24.30;29.20;;;;;;6094071;23;20756;-78
2023/04/19 11:07:01;;;;;;;2.95;1.95;;;24.30;29.10;;;;;;6093855;23;20397;-78
2023/04/19 11:09:33;;;;;;;3.35;2.45;;;24.10;29.20;;;;;;6092084;23;20401;-79
2023/04/19 11:12:14;;;;;;;2.67;1.90;;;24.00;29.60;;;;;;6116172;23;20378;-81
2023/04/19 11:14:43;;;;;;;2.97;2.58;;;24.10;30.30;;;;;;6092121;23;20936;-78
2023/04/19 11:17:30;;;;;;;3.60;2.47;;;24.20;30.30;;;;;;6091400;23;20700;-79
2023/04/19 11:20:00;;;;;;;3.63;2.05;;;24.40;30.20;;;;;;6090622;23;20724;-80
2023/04/19 11:22:34;;;;;;;4.72;2.80;;;24.60;30.00;;;;;;6093631;23;20399;-78
2023/04/19 11:25:11;;;;;;;3.00;2.40;;;24.70;30.30;;;;;;6091339;23;20400;-79
2023/04/19 11:27:42;;;;;;;5.10;3.60;;;24.70;30.00;;;;;;6067088;23;20405;-78
2023/04/19 11:30:11;;;;;;;4.30;3.53;;;24.70;30.10;;;;;;6066290;23;20373;-79
2023/04/19 11:32:45;;;;;;;4.60;2.87;;;24.80;30.10;;;;;;6066854;23;20389;-78
2023/04/19 11:35:12;;;;;;;4.55;3.10;;;24.70;30.30;;;;;;6067700;23;20385;-78
2023/04/19 11:37:39;;;;;;;4.50;2.80;;;24.90;30.60;;;;;;6065951;23;20381;-78
2023/04/19 11:40:07;;;;;;;2.50;1.98;;;24.80;29.90;;;;;;6066483;23;20397;-77
2023/04/19 11:42:35;;;;;;;3.72;2.78;;;24.90;30.00;;;;;;6067227;23;20411;-79
2023/04/19 11:45:02;;;;;;;3.28;2.20;;;24.80;29.20;;;;;;6065607;23;20417;-78
2023/04/19 11:47:31;;;;;;;3.17;2.50;;;24.90;29.60;;;;;;6067386;23;20911;-79
2023/04/19 11:50:31;;;;;;;5.00;2.20;;;24.90;28.70;;;;;;6066460;23;20708;-78
2023/04/19 11:52:59;;;;;;;3.33;2.35;;;24.90;29.10;;;;;;6066950;23;20381;-78
2023/04/19 11:55:26;;;;;;;2.35;1.50;;;25.00;28.70;;;;;;6067082;23;20432;-80
2023/04/19 11:57:53;;;;;;;2.57;1.40;;;25.10;28.90;;;;;;6066900;23;20374;-78
2023/04/19 12:00:27;;;;;;;2.65;2.08;;;25.30;28.70;;;;;;6065603;23;20381;-78
2023/04/19 12:02:54;;;;;;;3.97;2.05;;;25.40;27.80;;;;;;6091752;23;20433;-79
2023/04/19 12:05:22;;;;;;;3.38;2.10;;;25.30;27.20;;;;;;6092596;23;20449;-78
2023/04/19 12:08:03;;;;;;;2.35;1.60;;;25.20;27.90;;;;;;6066425;23;20382;-78
2023/04/19 12:10:31;;;;;;;2.92;1.55;;;25.20;28.10;;;;;;6090825;23;20716;-79
2023/04/19 12:12:58;;;;;;;3.92;2.65;;;25.30;28.10;;;;;;6061257;23;20405;-79
2023/04/19 12:15:44;;;;;;;4.30;2.40;;;25.30;28.10;;;;;;6067548;23;20405;-79
2023/04/19 12:18:12;;;;;;;4.95;2.70;;;25.40;28.70;;;;;;6054846;23;20397;-78
2023/04/19 12:20:47;;;;;;;3.97;2.60;;;25.40;28.30;;;;;;6067017;23;20428;-78
2023/04/19 12:23:16;;;;;;;2.60;2.00;;;25.30;28.10;;;;;;5995822;23;1831664;-78
2023/04/19 12:25:45;;;;;;;2.05;1.40;;;25.30;28.90;;;;;;6091858;23;20381;-78
2023/04/19 12:28:13;;;;;;;3.65;2.35;;;25.40;28.70;;;;;;6090949;23;20760;-78
2023/04/19 12:30:41;;;;;;;2.83;2.20;;;25.50;28.40;;;;;;6093995;23;20699;-78
2023/04/19 12:33:08;;;;;;;3.70;2.40;;;25.70;27.80;;;;;;6091033;23;20377;-78
2023/04/19 12:35:37;;;;;;;3.08;1.92;;;25.80;27.70;;;;;;6092162;23;20751;-78
2023/04/19 12:38:04;;;;;;;2.90;1.60;;;25.80;27.60;;;;;;6091096;23;20385;-78
2023/04/19 12:40:31;;;;;;;2.03;1.60;;;25.70;27.30;;;;;;6092356;23;20744;-78
2023/04/19 12:42:58;;;;;;;4.25;2.00;;;25.70;27.60;;;;;;6090871;23;20733;-78
2023/04/19 12:45:25;;;;;;;4.10;2.40;;;25.60;27.80;;;;;;6092405;23;20378;-78
2023/04/19 12:47:52;;;;;;;3.40;2.15;;;25.60;27.30;;;;;;6091223;23;20433;-78
2023/04/19 12:50:20;;;;;;;2.50;1.67;;;25.50;27.40;;;;;;6091982;23;20384;-78
2023/04/19 12:52:47;;;;;;;2.50;1.70;;;25.50;28.20;;;;;;6092305;23;20381;-79
2023/04/19 12:55:14;;;;;;;2.75;2.13;;;25.60;28.00;;;;;;6092634;23;20847;-77
2023/04/19 12:57:41;;;;;;;2.70;2.00;;;25.70;27.50;;;;;;6092115;23;20411;-79
2023/04/19 13:00:12;;;;;;;3.10;1.85;;;25.70;27.10;;;;;;6089863;23;20764;-78
2023/04/19 13:02:38;;;;;;;1.90;1.40;;;25.70;27.50;;;;;;6091876;23;20756;-78
2023/04/19 13:05:06;;;;;;;2.42;1.80;;;25.80;27.70;;;;;;6091112;23;20374;-78
2023/04/19 13:07:33;;;;;;;3.22;2.17;;;25.90;27.30;;;;;;6091443;23;20377;-78
2023/04/19 13:10:00;;;;;;;3.22;1.88;;;25.90;26.70;;;;;;6090849;23;20770;-80
2023/04/19 13:12:27;;;;;;;2.85;2.22;;;25.90;26.90;;;;;;6091807;23;20373;-80
2023/04/19 13:14:54;;;;;;;2.88;1.50;;;25.80;26.70;;;;;;6091715;23;20386;-79
2023/04/19 13:17:21;;;;;;;2.95;1.70;;;25.80;27.30;;;;;;6092124;23;20377;-78
2023/04/19 13:19:48;;;;;;;2.57;1.70;;;25.90;27.40;;;;;;6093784;23;20377;-78
2023/04/19 13:22:15;;;;;;;2.90;1.90;;;26.00;26.50;;;;;;6091089;23;20381;-78
2023/04/19 13:24:42;;;;;;;2.05;1.58;;;26.10;26.80;;;;;;6097116;23;20403;-78
2023/04/19 13:27:09;;;;;;;4.30;2.03;;;26.10;26.40;;;;;;6095971;23;20403;-78
2023/04/19 13:29:36;;;;;;;2.83;1.58;;;26.10;25.90;;;;;;6097059;23;20544;-80
2023/04/19 13:32:06;;;;;;;1.77;1.30;;;26.00;26.70;;;;;;6095940;23;20380;-78
2023/04/19 13:34:34;;;;;;;2.10;1.40;;;26.20;27.10;;;;;;6096825;23;20376;-78
2023/04/19 13:37:01;;;;;;;2.88;1.30;;;26.30;27.10;;;;;;6095959;23;20380;-78
2023/04/19 13:39:28;;;;;;;2.75;1.90;;;26.60;26.50;;;;;;6096911;23;20444;-80
2023/04/19 13:41:55;;;;;;;1.35;1.05;;;26.70;25.70;;;;;;6097267;23;20423;-78
2023/04/19 13:44:24;;;;;;;2.67;1.75;;;26.70;26.00;;;;;;6096430;23;20368;-81
2023/04/19 13:46:50;;;;;;;2.40;1.50;;;26.80;25.70;;;;;;6122613;23;20382;-79
2023/04/19 13:49:18;;;;;;;1.98;1.33;;;26.70;25.80;;;;;;6121733;23;20379;-79
2023/04/19 13:51:45;;;;;;;2.60;1.80;;;26.70;26.10;;;;;;6096509;23;20463;-79
2023/04/19 13:54:16;;;;;;;2.70;1.53;;;26.60;25.80;;;;;;6097127;23;20386;-78
2023/04/19 13:56:44;;;;;;;2.45;1.80;;;26.50;26.10;;;;;;6087063;23;20392;-77
2023/04/19 13:59:11;;;;;;;3.05;1.88;;;26.30;25.80;;;;;;6094052;23;20409;-78
2023/04/19 14:01:40;;;;;;;4.25;1.98;;;26.00;26.10;;;;;;6097763;23;20454;-78
2023/04/19 14:04:06;;;;;;;2.53;1.70;;;25.80;26.40;;;;;;6087870;23;20763;-77
2023/04/19 14:06:34;;;;;;;2.08;1.40;;;25.60;26.90;;;;;;6098739;23;20443;-78
2023/04/19 14:09:01;;;;;;;5.10;1.67;;;25.50;27.00;;;;;;6097718;23;20430;-78
2023/04/19 14:11:28;;;;;;;1.90;1.60;;;25.30;27.20;;;;;;6098556;23;20419;-78
2023/04/19 14:13:55;;;;;;;2.28;1.35;;;25.10;27.40;;;;;;6098240;23;20380;-78
2023/04/19 14:16:24;;;;;;;1.95;1.10;;;25.00;27.80;;;;;;6096837;23;20735;-77
2023/04/19 14:18:51;;;;;;;1.70;1.20;;;25.00;28.30;;;;;;6098652;23;20427;-78
2023/04/19 14:21:18;;;;;;;1.50;1.00;;;25.10;28.50;;;;;;6097272;23;20714;-77
2023/04/19 14:23:45;;;;;;;1.50;0.90;;;25.10;28.70;;;;;;6098305;23;20659;-77
2023/04/19 14:26:12;;;;;;;3.67;2.10;;;25.00;28.00;;;;;;6097251;23;20705;-79
2023/04/19 14:28:39;;;;;;;2.08;1.73;;;24.90;27.40;;;;;;6098560;23;20380;-78
2023/04/19 14:31:06;;;;;;;3.33;1.85;;;25.00;27.80;;;;;;6097784;23;20702;-78
2023/04/19 14:33:32;;;;;;;1.90;1.40;;;25.00;27.80;;;;;;6098079;23;20368;-78
2023/04/19 14:36:00;;;;;;;2.10;1.35;;;24.90;27.60;;;;;;6098662;23;20407;-78
2023/04/19 14:38:27;;;;;;;2.00;1.27;;;24.80;27.50;;;;;;6097862;23;20723;-78
2023/04/19 14:40:54;;;;;;;3.57;1.40;;;24.70;28.00;;;;;;6098504;23;20372;-78
2023/04/19 14:43:21;;;;;;;2.50;1.70;;;24.60;27.70;;;;;;6097557;23;20422;-78
2023/04/19 14:45:48;;;;;;;1.92;1.23;;;24.50;28.20;;;;;;6098533;23;20386;-78
2023/04/19 14:48:15;;;;;;;2.15;1.40;;;24.40;27.80;;;;;;6098023;23;20372;-78
2023/04/19 14:50:42;;;;;;;1.77;1.27;;;24.20;27.70;;;;;;6098265;23;20711;-78
2023/04/19 14:53:09;;;;;;;2.30;1.00;;;24.00;27.90;;;;;;6097501;23;20383;-78
2023/04/19 14:55:36;;;;;;;1.77;1.40;;;23.90;28.50;;;;;;6097869;23;20403;-78
2023/04/19 14:58:04;;;;;;;1.93;1.30;;;23.90;28.60;;;;;;6084780;23;20576;-79
2023/04/19 15:00:32;;;;;;;1.90;1.10;;;23.90;28.70;;;;;;6096044;23;20402;-78
2023/04/19 15:03:00;;;;;;;1.53;0.90;;;24.10;29.20;;;;;;6122626;23;20380;-78
2023/04/19 15:05:27;;;;;;;1.77;1.00;;;24.30;29.20;;;;;;6085402;23;20379;-78
2023/04/19 15:07:54;;;;;;;2.17;1.20;;;24.40;29.40;;;;;;6095208;23;20776;-79
2023/04/19 15:10:24;;;;;;;1.70;1.02;;;24.50;29.10;;;;;;6120285;23;20431;-77
2023/04/19 15:12:51;;;;;;;1.65;1.10;;;24.60;29.10;;;;;;6119633;23;20417;-81
2023/04/19 15:15:17;;;;;;;1.42;1.13;;;24.80;29.20;;;;;;6095224;23;20383;-79
2023/04/19 15:17:45;;;;;;;1.50;0.90;;;24.90;28.80;;;;;;6098410;23;20387;-78
2023/04/19 15:20:12;;;;;;;1.08;0.70;;;24.90;29.00;;;;;;6096844;23;20395;-78
2023/04/19 15:22:39;;;;;;;3.47;1.30;;;24.80;29.10;;;;;;6098151;23;20763;-78
2023/04/19 15:25:06;;;;;;;1.15;0.82;;;24.80;28.60;;;;;;6095826;23;20458;-79
2023/04/19 15:27:33;;;;;;;1.25;0.80;;;24.60;28.80;;;;;;6097064;23;20415;-79
2023/04/19 15:30:00;;;;;;;1.00;0.80;;;24.60;29.10;;;;;;6097732;23;20447;-78
2023/04/19 15:32:29;;;;;;;1.17;0.82;;;24.60;28.70;;;;;;6097172;23;20422;-79
2023/04/19 15:34:56;;;;;;;2.08;0.80;;;24.50;28.90;;;;;;6097783;23;20692;-78
2023/04/19 15:37:23;;;;;;;1.13;0.80;;;24.60;29.00;;;;;;6122348;23;20391;-78
2023/04/19 15:39:49;;;;;;;1.00;0.77;;;24.60;28.90;;;;;;6097736;23;20380;-78
2023/04/19 15:42:16;;;;;;;1.30;0.77;;;24.50;29.10;;;;;;6097835;23;20371;-78
2023/04/19 15:44:43;;;;;;;1.00;0.68;;;24.50;28.80;;;;;;6097853;23;20395;-79
2023/04/19 15:47:10;;;;;;;0.80;0.70;;;24.40;29.00;;;;;;6097185;23;20909;-79
2023/04/19 15:49:39;;;;;;;1.00;0.77;;;24.40;29.10;;;;;;6098269;23;20427;-78
2023/04/19 15:52:07;;;;;;;1.73;0.77;;;24.30;28.90;;;;;;6097996;23;20450;-78
2023/04/19 15:54:36;;;;;;;0.85;0.60;;;24.20;29.10;;;;;;6097436;23;20475;-78
2023/04/19 15:57:03;;;;;;;1.13;0.60;;;24.20;29.40;;;;;;6097648;23;20380;-81
2023/04/19 15:59:30;;;;;;;0.73;0.50;;;24.10;29.50;;;;;;6122847;23;20584;-79
2023/04/19 16:01:57;;;;;;;0.80;0.50;;;24.10;29.50;;;;;;6097588;23;20431;-79
2023/04/19 16:04:24;;;;;;;1.40;0.70;;;24.10;29.80;;;;;;6097239;23;20454;-79
2023/04/19 16:06:51;;;;;;;1.50;0.65;;;24.10;29.40;;;;;;6097822;23;20380;-79
2023/04/19 16:09:19;;;;;;;0.77;0.70;;;24.00;29.40;;;;;;6096279;23;20387;-83
2023/04/19 16:11:45;;;;;;;0.60;0.40;;;24.00;29.50;;;;;;6097597;23;20856;-79
2023/04/19 16:14:12;;;;;;;0.70;0.55;;;23.90;29.70;;;;;;6096653;23;20384;-79
2023/04/19 16:16:39;;;;;;;0.60;0.60;;;24.00;29.70;;;;;;6097875;23;20368;-78
2023/04/19 16:19:06;;;;;;;1.00;0.60;;;23.90;29.80;;;;;;6097570;23;20396;-78
2023/04/19 16:21:33;;;;;;;1.48;0.60;;;23.90;29.80;;;;;;6096718;23;20439;-78
2023/04/19 16:24:00;;;;;;;0.57;0.50;;;23.90;29.90;;;;;;6096974;23;20371;-78
2023/04/19 16:26:27;;;;;;;0.60;0.50;;;23.90;29.80;;;;;;6096875;23;20751;-80
2023/04/19 16:28:54;;;;;;;1.00;0.60;;;23.80;29.90;;;;;;6097920;23;20715;-78
2023/04/19 16:31:21;;;;;;;1.20;0.40;;;23.70;29.90;;;;;;6096991;23;20415;-80
2023/04/19 16:33:48;;;;;;;1.13;0.60;;;23.60;29.80;;;;;;6097296;23;20738;-78
2023/04/19 16:36:15;;;;;;;0.73;0.47;;;23.50;29.80;;;;;;6096699;23;21066;-79
2023/04/19 16:38:41;;;;;;;0.68;0.60;;;23.40;30.00;;;;;;6097604;23;20869;-78
2023/04/19 16:41:10;;;;;;;2.70;1.20;;;23.30;30.60;;;;;;6097157;23;20387;-79
2023/04/19 16:43:37;;;;;;;0.50;0.40;;;23.20;30.30;;;;;;6096898;23;20435;-78
2023/04/19 16:46:05;;;;;;;0.80;0.50;;;23.20;30.80;;;;;;6097076;23;20372;-78
2023/04/19 16:48:32;;;;;;;1.38;0.50;;;23.20;31.10;;;;;;6097065;23;20714;-78
2023/04/19 16:50:59;;;;;;;0.90;0.60;;;23.10;31.60;;;;;;6097489;23;20400;-80
2023/04/19 16:53:26;;;;;;;1.35;0.50;;;23.00;32.60;;;;;;6096512;23;20431;-80
2023/04/19 16:55:53;;;;;;;1.20;0.50;;;23.00;34.40;;;;;;6097245;23;20380;-80
2023/04/19 16:58:22;;;;;;;0.63;0.50;;;23.00;35.90;;;;;;6096953;23;20375;-80
2023/04/19 17:00:49;;;;;;;1.08;0.63;;;23.10;36.90;;;;;;6123448;23;20382;-79
2023/04/19 17:03:15;;;;;;;2.30;1.00;;;23.30;35.00;;;;;;6096376;23;20410;-80
2023/04/19 17:05:42;;;;;;;0.90;0.70;;;23.40;32.20;;;;;;6097005;23;20379;-81
2023/04/19 17:08:10;;;;;;;1.13;0.50;;;23.50;30.80;;;;;;6097185;23;20699;-79
2023/04/19 17:10:37;;;;;;;1.17;0.60;;;23.60;30.90;;;;;;6096386;23;20379;-79
2023/04/19 17:13:04;;;;;;;0.80;0.50;;;23.70;30.30;;;;;;6097548;23;20387;-79
2023/04/19 17:15:31;;;;;;;1.35;0.60;;;23.60;30.20;;;;;;6096545;23;20773;-79
2023/04/19 17:17:58;;;;;;;1.27;0.70;;;23.70;30.60;;;;;;6122742;23;20459;-80